Sps Commerce Inc (SPSC) Latest Bloomsberg Price


Mffais Ranking #2397 Overall / #73 Industry
Industry: Application Software

Number of Companies: 115 (Ranking #1472 Overall/#43 Industry)
Inflow: $ 46,161 (K) (Ranking #1348 Overall/#43 Industry)
Outflow: $ -116,879 (K)
Mffais Flow: $ -70,718 (K) (Ranking #2397 Overall/#73 Industry)


Receive a FREE weekly executive review of stocks moving into the top 10, taking the top industy spot or moving up within their industry. Sent directly to your Inbox every Saturday. Sign up today and get last week's review immediately sent to you.

We value and respect your privacy. Please read our Terms and Conditions which states our firm commitment to your privacy. Your email address will not be shared with a third party, nor will it be sold or used for purposes other than subscription for the weekly review.

Owner CPOR Shares Action Qty Chg Invested (K) Total Current Value (K)
Hound Partners Llc 2016-09-30 296,110 New Holding 296,110 $ 18,089 $ 18,089
Riverbridge Partners Llc 2016-09-30 938,277 Added More 123,634 $ 7,552 $ 57,319
Champlain Investment Partners Llc 2016-09-30 580,190 Added More 84,640 $ 5,170 $ 35,443
Weatherbie Capital Llc 2016-09-30 350,305 Added More 39,264 $ 2,398 $ 21,400
Guggenheim Capital Llc 2016-09-30 23,909 New Holding 23,909 $ 1,460 $ 1,460
Pdt Partners Llc 2016-09-30 21,300 New Holding 21,300 $ 1,301 $ 1,301
Comerica Bank 2016-09-30 17,099 New Holding 17,099 $ 1,044 $ 1,044
State Of Tennessee Treasury Department 2016-09-30 13,600 New Holding 13,600 $ 830 $ 830
Public Sector Pension Investment Board 2016-09-30 12,000 New Holding 12,000 $ 733 $ 733
Legal General Group Plc 2016-09-30 13,809 Added More 11,465 $ 700 $ 843
Texas Permanent School Fund 2016-09-30 11,256 New Holding 11,256 $ 687 $ 687
Spark Investment Management Llc 2016-09-30 10,600 New Holding 10,600 $ 647 $ 647
Summit Securities Group Llc 2016-09-30 9,339 New Holding 9,339 $ 570 $ 570
Thrivent Financial For Lutherans 2016-09-30 8,860 New Holding 8,860 $ 541 $ 541
Blackrock Investment Management Llc 2016-09-30 68,964 Added More 7,414 $ 452 $ 4,213
New York State Teachers Retirement System 2016-09-30 6,965 New Holding 6,965 $ 425 $ 425
Raymond James Financial Services Advisors Inc 2016-09-30 5,608 New Holding 5,608 $ 342 $ 342
Geneva Advisors Llc 2016-09-30 27,697 Added More 5,502 $ 336 $ 1,692
Rhumbline Advisers 2016-09-30 22,438 Added More 5,192 $ 317 $ 1,370
Teachers Retirement System Of The State Of Kentucky 2016-09-30 4,300 New Holding 4,300 $ 262 $ 262
Quadrature Capital Ltd 2016-09-30 4,075 New Holding 4,075 $ 248 $ 248
Ellington Management Group Llc 2016-09-30 3,800 New Holding 3,800 $ 232 $ 232
Mason Street Advisors Llc 2016-09-30 3,365 New Holding 3,365 $ 205 $ 205
Ironwood Investment Management Llc 2016-09-30 10,066 Added More 2,960 $ 180 $ 614
Capstone Asset Management Co 2016-09-30 2,953 New Holding 2,953 $ 180 $ 180
Sg Americas Securities Llc 2016-09-30 2,888 New Holding 2,888 $ 176 $ 176
American International Group Inc 2016-09-30 12,390 Added More 2,851 $ 174 $ 756
Simplex Trading Llc 2016-09-30 2,720 New Holding 2,720 $ 166 $ 166
Menta Capital Llc 2016-09-30 5,678 Added More 2,178 $ 133 $ 346
Aperio Group Llc 2016-09-30 5,040 Added More 1,683 $ 102 $ 307
Raymond James Associates 2016-09-30 27,718 Added More 1,677 $ 102 $ 1,693
Moody Aldrich Partners Llc 2016-09-30 11,460 Added More 1,520 $ 92 $ 700
Us Bancorp De 2016-09-30 12,294 Added More 1,020 $ 62 $ 751
Parametric Portfolio Associates Llc 2016-09-30 23,340 Added More 867 $ 52 $ 1,425
Ls Investment Advisors Llc 2016-09-30 626 New Holding 626 $ 38 $ 38
Pnc Financial Services Group Inc 2016-09-30 4,846 Added More 458 $ 27 $ 296
Quantbot Technologies Lp 2016-09-30 1,413 Added More 344 $ 21 $ 86
Pacad Investment Ltd 2016-09-30 300 New Holding 300 $ 18 $ 18
California State Teachers Retirement System 2016-09-30 35,046 Added More 300 $ 18 $ 2,140
Teachers Advisors Inc 2016-09-30 227,995 Added More 201 $ 12 $ 13,928
Reilly Financial Advisors Llc 2016-09-30 200 New Holding 200 $ 12 $ 12
Fifth Third Bancorp 2016-09-30 1,280 Added More 180 $ 10 $ 78
Blackrock Inc 2016-09-30 1,702 Added More 120 $ 7 $ 103
Zurcher Kantonalbank Zurich Cantonalbank 2016-09-30 501 Added More 92 $ 5 $ 30
Howe Rusling Inc 2016-09-30 50 New Holding 50 $ 3 $ 3
Globeflex Capital L P 2016-09-30 41 New Holding 41 $ 2 $ 2
Quadrant Capital Group Llc 2016-09-30 158 Added More 35 $ 2 $ 9
Parkside Financial Bank Trust 2016-09-30 119 Added More 25 $ 1 $ 7
Ftb Advisors Inc 2016-09-30 131 Added More 14 $ 0 $ 8
Wealthtrust-Arizona Llc 2016-09-30 306 Added More 13 $ 0 $ 18
Tower Research Capital Llc Trc 2016-09-30 100 Added More 12 $ 0 $ 6
Mackenzie Financial Corp 2016-09-30 10,118 No Change 0 $ 0 $ 618
Amica Pension Fund Board Of Trustees 2016-09-30 8,322 No Change 0 $ 0 $ 508
Amica Mutual Insurance Co 2016-09-30 11,667 No Change 0 $ 0 $ 712
Msi Financial Services Inc 2016-09-30 137 No Change 0 $ 0 $ 8
Hanson Mcclain Inc 2016-06-30 60 No Change 0 $ 0 $ 3
Deere Co 2016-09-30 8,535 No Change 0 $ 0 $ 521
Finemark National Bank Trust 2016-09-30 92 No Change 0 $ 0 $ 5
Dupont Capital Management Corp 2016-09-30 13,320 No Change 0 $ 0 $ 813
Nationwide Fund Advisors 2016-09-30 10,874 No Change 0 $ 0 $ 664
Keybank National Association Oh 2016-09-30 7,324 No Change 0 $ 0 $ 447
Thompson Siegel Walmsley Llc 2016-09-30 350 No Change 0 $ 0 $ 21
Nisa Investment Advisors Llc 2016-09-30 300 No Change 0 $ 0 $ 18
Amica Retiree Medical Trust 2016-09-30 1,277 No Change 0 $ 0 $ 78
Ifp Advisors Inc 2016-09-30 0 Sold All -13 $ -0 $ 0
Azimuth Capital Management Llc 2016-09-30 44,697 Sold Some -16 $ -0 $ 2,730
Cadence Capital Management Llc 2016-09-30 5,062 Sold Some -39 $ -2 $ 309
Sei Investments Co 2016-09-30 7 Sold Some -44 $ -2 $ 0
Advisor Group Inc 2016-09-30 187 Sold Some -59 $ -3 $ 11
Tompkins Financial Corp 2016-09-30 0 Sold All -80 $ -4 $ 0
Mairs Power Inc 2016-09-30 43,450 Sold Some -100 $ -6 $ 2,654
Perkins Capital Management Inc 2016-09-30 16,050 Sold Some -200 $ -12 $ 980
Advisors Preferred Llc 2016-09-30 0 Sold All -237 $ -14 $ 0
Independent Portfolio Consultants Inc 2016-09-30 0 Sold All -275 $ -16 $ 0
Cutler Group Lp 2016-09-30 4,100 Sold Some -400 $ -24 $ 250
Ladenburg Thalmann Financial Services Inc 2016-09-30 39 Sold Some -465 $ -28 $ 2
Summit Creek Advisors Llc 2016-09-30 103,777 Sold Some -760 $ -46 $ 6,339
Eagle Asset Management Inc 2016-09-30 99,907 Sold Some -894 $ -54 $ 6,103
Bb T Corp 2016-09-30 4,965 Sold Some -980 $ -59 $ 303
Driehaus Capital Management Llc 2016-09-30 6,393 Sold Some -1,015 $ -62 $ 390
Swiss National Bank 2016-09-30 26,100 Sold Some -1,100 $ -67 $ 1,594
Diam Co Ltd 2016-09-30 20,380 Sold Some -2,003 $ -122 $ 1,245
Kopp Investment Advisors Llc 2016-09-30 25,789 Sold Some -2,040 $ -124 $ 1,575
Disciplined Growth Investors Inc Mn 2016-09-30 138,075 Sold Some -2,225 $ -135 $ 8,435
Teacher Retirement System Of Texas 2016-09-30 0 Sold All -2,322 $ -141 $ 0
Envestnet Asset Management Inc 2016-09-30 15,209 Sold Some -2,854 $ -174 $ 929
Next Century Growth Investors Llc 2016-09-30 54,551 Sold Some -2,973 $ -181 $ 3,332
Princeton Alpha Management Lp 2016-09-30 0 Sold All -5,317 $ -324 $ 0
Wasatch Advisors Inc 2016-09-30 638,173 Sold Some -5,948 $ -363 $ 38,985
Peak6 Investments L P 2016-09-30 0 Sold All -6,000 $ -366 $ 0
Nuveen Asset Management Llc 2016-09-30 44,747 Sold Some -6,195 $ -378 $ 2,733
Gsa Capital Partners Llp 2016-09-30 0 Sold All -6,314 $ -385 $ 0
Walleye Trading Llc 2016-09-30 0 Sold All -7,705 $ -470 $ 0
United Services Automobile Association 2016-09-30 64,211 Sold Some -8,700 $ -531 $ 3,922
Kalmar Investments Inc De 2016-09-30 71,858 Sold Some -9,595 $ -586 $ 4,389
Clinton Group Inc 2016-09-30 7,220 Sold Some -11,038 $ -674 $ 441
Emerald Acquisition Ltd 2016-09-30 72,785 Sold Some -16,158 $ -987 $ 4,446
New York State Common Retirement Fund 2016-09-30 75,497 Sold Some -16,348 $ -998 $ 4,612
Friedberg Investment Management 2016-09-30 0 Sold All -17,730 $ -1,083 $ 0
Northern Trust Corp 2016-09-30 409,004 Sold Some -22,580 $ -1,379 $ 24,986
Gilder Gagnon Howe Co Llc 2016-09-30 28,290 Sold Some -27,609 $ -1,686 $ 1,728
Diker Management Llc 2016-09-30 0 Sold All -44,514 $ -2,719 $ 0
King Luther Capital Management Corp 2016-09-30 120,020 Sold Some -50,895 $ -3,109 $ 7,332
Polar Capital Llp 2016-09-30 0 Sold All -54,332 $ -3,319 $ 0
Venator Capital Management Ltd 2016-09-30 0 Sold All -74,390 $ -4,544 $ 0
Conestoga Capital Advisors Llc 2016-09-30 647,128 Sold Some -80,275 $ -4,904 $ 39,533
Garelick Capital Partners Lp 2016-09-30 0 Sold All -87,613 $ -5,352 $ 0
Ranger Investment Management L P 2016-09-30 372,048 Sold Some -90,265 $ -5,514 $ 22,728
Arrowpoint Asset Management Llc 2016-09-30 331,080 Sold Some -125,877 $ -7,689 $ 20,225
Granahan Investment Management Inc Ma 2016-09-30 770,539 Sold Some -129,160 $ -7,890 $ 47,072
Kornitzer Capital Management Inc Ks 2016-09-30 237,435 Sold Some -154,155 $ -9,417 $ 14,504
Tiverton Asset Management Llc 2016-09-30 103,693 Sold Some -185,114 $ -11,308 $ 6,334
Granite Investment Partners Llc 2016-09-30 0 Sold All -191,299 $ -11,686 $ 0
Elliott Management Corp 2016-09-30 0 Sold All -203,864 $ -12,454 $ 0
Columbia Wanger Asset Management Llc 2016-09-30 1,093,844 Sold Some -253,158 $ -15,465 $ 66,822